Time;durP1;ratioP1;P1;durP2;ratioP2;P2;SDS_P1;SDS_P2;PMS_P1;PMS_P2;Temp;Humidity;BMP_temperature;BMP_pressure;BME280_temperature;BME280_humidity;BME280_pressure;Samples;Min_cycle;Max_cycle;Signal;HPM_P1;HPM_P2
2023/01/31 00:01:52;;;;;;;19.87;9.37;;;;;-0.10;94734.00;;;;7398291;19;20517;-77
2023/01/31 00:04:19;;;;;;;17.80;8.87;;;;;-0.10;94719.00;;;;7397785;19;20504;-77
2023/01/31 00:07:00;;;;;;;19.17;8.93;;;;;-0.10;94730.00;;;;7400596;19;20587;-74
2023/01/31 00:09:27;;;;;;;27.97;8.70;;;;;-0.10;94729.00;;;;7398255;19;20145;-74
2023/01/31 00:12:01;;;;;;;18.00;8.97;;;;;-0.20;94729.00;;;;7398504;19;20484;-74
2023/01/31 00:14:35;;;;;;;17.37;9.13;;;;;-0.10;94725.00;;;;7398889;19;20141;-73
2023/01/31 00:17:03;;;;;;;21.60;8.93;;;;;-0.10;94720.00;;;;7399840;19;20157;-73
2023/01/31 00:19:37;;;;;;;20.87;8.47;;;;;-0.10;94720.00;;;;7397190;19;20155;-75
2023/01/31 00:22:05;;;;;;;19.10;8.40;;;;;-0.10;94715.00;;;;7398749;19;20599;-74
2023/01/31 00:24:39;;;;;;;21.37;9.57;;;;;-0.20;94718.00;;;;7399047;19;20600;-74
2023/01/31 00:27:07;;;;;;;21.13;9.67;;;;;-0.10;94724.00;;;;7399833;19;20213;-74
2023/01/31 00:29:41;;;;;;;18.83;8.30;;;;;-0.20;94723.00;;;;7397644;19;20617;-74
2023/01/31 00:32:15;;;;;;;19.70;9.20;;;;;-0.10;94720.00;;;;7399819;19;20137;-73
2023/01/31 00:34:42;;;;;;;22.43;8.17;;;;;-0.20;94720.00;;;;7399906;19;20152;-75
2023/01/31 00:37:16;;;;;;;27.87;10.87;;;;;-0.20;94721.00;;;;7399988;19;20639;-74
2023/01/31 00:39:50;;;;;;;68.37;22.80;;;;;-0.20;94710.00;;;;7397776;19;20129;-75
2023/01/31 00:42:24;;;;;;;20.87;10.03;;;;;-0.30;94706.00;;;;7397437;19;20600;-74
2023/01/31 00:44:58;;;;;;;24.30;8.60;;;;;-0.30;94711.00;;;;7403792;19;20185;-75
2023/01/31 00:47:25;;;;;;;24.10;8.20;;;;;-0.30;94705.00;;;;7405930;19;20158;-74
2023/01/31 00:49:59;;;;;;;21.70;8.07;;;;;-0.20;94709.00;;;;7406967;19;20146;-74
2023/01/31 00:52:33;;;;;;;17.03;7.53;;;;;-0.20;94712.00;;;;7405165;19;20215;-74
2023/01/31 00:55:08;;;;;;;17.03;7.70;;;;;-0.20;94713.00;;;;7405920;19;20192;-74
2023/01/31 00:57:42;;;;;;;19.23;7.50;;;;;-0.20;94702.00;;;;7405247;19;20140;-75
2023/01/31 01:00:17;;;;;;;24.10;10.53;;;;;-0.20;94697.00;;;;7405859;19;20584;-74
2023/01/31 01:02:44;;;;;;;20.70;8.00;;;;;0.00;94701.00;;;;7403501;19;20200;-74
2023/01/31 01:05:25;;;;;;;21.43;7.70;;;;;0.00;94704.00;;;;7404727;19;20639;-73
2023/01/31 01:07:59;;;;;;;25.93;8.30;;;;;0.30;94705.00;;;;7405591;19;20156;-74
2023/01/31 01:10:27;;;;;;;19.40;7.77;;;;;0.20;94704.00;;;;7405340;19;20128;-75
2023/01/31 01:13:01;;;;;;;21.60;8.63;;;;;0.20;94704.00;;;;7403617;19;20136;-74
2023/01/31 01:15:38;;;;;;;17.20;8.43;;;;;0.10;94701.00;;;;7404337;19;20132;-75
2023/01/31 01:18:07;;;;;;;23.03;9.73;;;;;0.30;94692.00;;;;7403626;19;20144;-74
2023/01/31 01:20:41;;;;;;;21.27;9.43;;;;;0.50;94710.00;;;;7405171;19;20151;-74
2023/01/31 01:23:08;;;;;;;23.97;9.43;;;;;0.50;94704.00;;;;7403131;19;20128;-74
2023/01/31 01:25:45;;;;;;;24.03;9.80;;;;;0.40;94684.00;;;;7403304;19;20154;-76
2023/01/31 01:28:13;;;;;;;27.87;9.07;;;;;0.40;94693.00;;;;7405515;19;20121;-77
2023/01/31 01:30:47;;;;;;;26.07;10.33;;;;;0.30;94679.00;;;;7403275;19;20155;-76
2023/01/31 01:33:14;;;;;;;21.27;11.20;;;;;0.40;94688.00;;;;7402299;19;20151;-76
2023/01/31 01:35:48;;;;;;;23.83;10.20;;;;;0.50;94692.00;;;;7405229;19;20651;-76
2023/01/31 01:38:15;;;;;;;30.83;11.57;;;;;0.40;94698.00;;;;7402428;19;20133;-74
2023/01/31 01:40:49;;;;;;;22.33;10.77;;;;;0.40;94685.00;;;;7403098;19;20156;-74
2023/01/31 01:43:40;;;;;;;26.03;11.13;;;;;0.50;94705.00;;;;7405243;19;20128;-75
2023/01/31 01:46:31;;;;;;;24.73;10.10;;;;;0.40;94702.00;;;;7403557;19;20145;-77
2023/01/31 01:49:11;;;;;;;26.30;11.30;;;;;0.50;94690.00;;;;7404981;19;20135;-75
2023/01/31 01:51:47;;;;;;;28.87;10.23;;;;;0.40;94703.00;;;;7402393;19;20141;-75
2023/01/31 01:54:35;;;;;;;26.03;10.77;;;;;0.30;94676.00;;;;7402122;19;20154;-75
2023/01/31 01:57:12;;;;;;;23.60;10.47;;;;;0.30;94688.00;;;;7402037;19;20530;-76
2023/01/31 01:59:53;;;;;;;20.47;10.27;;;;;0.50;94692.00;;;;7400416;19;20144;-75
2023/01/31 02:02:21;;;;;;;18.70;10.23;;;;;0.40;94684.00;;;;7401116;19;20507;-75
2023/01/31 02:05:12;;;;;;;27.87;11.17;;;;;0.50;94693.00;;;;7402418;19;20188;-75
2023/01/31 02:07:47;;;;;;;19.77;10.40;;;;;0.20;94691.00;;;;7402530;19;20132;-75
2023/01/31 02:10:33;;;;;;;27.63;9.67;;;;;0.10;94694.00;;;;7401398;19;20148;-75
2023/01/31 02:13:08;;;;;;;19.40;10.83;;;;;0.50;94703.00;;;;7402710;19;20124;-77
2023/01/31 02:15:36;;;;;;;20.93;10.43;;;;;0.30;94694.00;;;;7401961;19;20148;-76
2023/01/31 02:18:11;;;;;;;26.90;10.27;;;;;0.40;94694.00;;;;7402101;19;20171;-75
2023/01/31 02:21:13;;;;;;;24.63;10.60;;;;;0.30;94704.00;;;;7400437;19;20506;-76
2023/01/31 02:24:23;;;;;;;28.90;10.70;;;;;0.10;94710.00;;;;7400583;19;20121;-75
2023/01/31 02:27:16;;;;;;;22.87;9.70;;;;;0.00;94695.00;;;;7402273;19;20137;-75
2023/01/31 02:30:08;;;;;;;22.93;8.57;;;;;0.00;94698.00;;;;7402570;19;20579;-74
2023/01/31 02:33:01;;;;;;;24.17;9.27;;;;;0.10;94706.00;;;;7401927;19;20133;-76
2023/01/31 02:36:17;;;;;;;22.73;8.67;;;;;0.20;94709.00;;;;7401637;19;20556;-75
2023/01/31 02:38:55;;;;;;;25.17;9.20;;;;;0.20;94705.00;;;;7400883;19;20133;-75
2023/01/31 02:42:04;;;;;;;22.87;9.30;;;;;0.10;94710.00;;;;7401756;19;20497;-75
2023/01/31 02:44:58;;;;;;;22.60;9.63;;;;;0.10;94703.00;;;;7400828;19;20135;-76
2023/01/31 02:48:29;;;;;;;20.60;8.30;;;;;0.10;94712.00;;;;7401620;19;20113;-75
2023/01/31 02:51:16;;;;;;;23.87;9.40;;;;;-0.10;94704.00;;;;7398720;19;20181;-74
2023/01/31 02:54:14;;;;;;;21.00;9.87;;;;;0.20;94710.00;;;;7397584;19;20117;-76
2023/01/31 02:56:51;;;;;;;21.80;9.77;;;;;0.10;94707.00;;;;7401657;19;20137;-74
2023/01/31 02:59:27;;;;;;;24.03;10.97;;;;;0.10;94711.00;;;;7401249;19;20599;-76
2023/01/31 03:02:03;;;;;;;23.07;10.63;;;;;0.20;94689.00;;;;7400825;19;20136;-75
2023/01/31 03:04:51;;;;;;;24.53;10.07;;;;;0.20;94679.00;;;;7400364;19;20123;-76
2023/01/31 03:07:30;;;;;;;27.47;10.80;;;;;0.20;94698.00;;;;7401379;19;20140;-74
2023/01/31 03:10:38;;;;;;;25.00;8.77;;;;;0.00;94676.00;;;;7401308;19;20157;-75
2023/01/31 03:13:17;;;;;;;26.13;10.03;;;;;0.00;94691.00;;;;7399192;19;20136;-77
2023/01/31 03:19:35;;;;;;;24.50;9.67;;;;;0.20;94693.00;;;;7400715;19;20156;-76
2023/01/31 03:22:22;;;;;;;26.70;11.07;;;;;0.10;94688.00;;;;7398885;19;20192;-77
2023/01/31 03:24:52;;;;;;;16.13;8.97;;;;;0.00;94682.00;;;;7400980;19;20460;-76
2023/01/31 03:27:27;;;;;;;28.83;8.90;;;;;0.00;94689.00;;;;7402667;19;20482;-77
2023/01/31 03:30:46;;;;;;;23.43;9.40;;;;;0.00;94680.00;;;;7386633;19;20186;-76
2023/01/31 03:33:23;;;;;;;24.07;9.43;;;;;0.00;94691.00;;;;7392512;19;20121;-76
2023/01/31 03:36:09;;;;;;;19.37;9.07;;;;;0.00;94691.00;;;;7400808;19;20231;-76
2023/01/31 03:39:09;;;;;;;26.70;9.00;;;;;-0.10;94694.00;;;;7400439;19;20124;-76
2023/01/31 03:41:44;;;;;;;22.60;9.20;;;;;0.10;94703.00;;;;7398792;19;20478;-76
2023/01/31 03:44:35;;;;;;;23.43;9.20;;;;;-0.10;94711.00;;;;7401938;19;20497;-76
2023/01/31 03:47:16;;;;;;;21.60;8.97;;;;;0.10;94709.00;;;;7399112;19;20121;-77
2023/01/31 03:49:53;;;;;;;24.23;9.10;;;;;-0.10;94715.00;;;;7400605;19;20145;-77
2023/01/31 03:52:35;;;;;;;21.57;9.07;;;;;-0.10;94707.00;;;;7399119;19;20141;-77
2023/01/31 03:55:11;;;;;;;26.47;9.60;;;;;-0.10;94715.00;;;;7399078;19;20135;-76
2023/01/31 03:57:51;;;;;;;21.87;9.67;;;;;-0.20;94710.00;;;;7399470;19;20156;-77
2023/01/31 04:00:26;;;;;;;23.63;8.77;;;;;0.00;94712.00;;;;7399112;19;20178;-77
2023/01/31 04:03:04;;;;;;;24.67;10.30;;;;;0.00;94715.00;;;;7396678;19;20492;-76
2023/01/31 04:05:39;;;;;;;23.40;9.83;;;;;0.00;94718.00;;;;7399074;19;20145;-76
2023/01/31 04:08:13;;;;;;;22.20;9.40;;;;;0.00;94709.00;;;;7400267;19;20158;-76
2023/01/31 04:10:48;;;;;;;21.17;10.20;;;;;0.10;94729.00;;;;7400606;19;20153;-77
2023/01/31 04:13:22;;;;;;;23.40;9.43;;;;;0.00;94725.00;;;;7398787;19;20603;-77
2023/01/31 04:15:50;;;;;;;24.37;10.17;;;;;0.00;94722.00;;;;7398818;19;20140;-76
2023/01/31 04:18:23;;;;;;;23.17;10.03;;;;;0.10;94726.00;;;;7400085;19;20117;-77
2023/01/31 04:20:52;;;;;;;23.30;10.70;;;;;0.10;94725.00;;;;7403267;19;20149;-78
2023/01/31 04:23:26;;;;;;;22.83;10.03;;;;;0.10;94735.00;;;;7405167;19;20634;-77
2023/01/31 04:25:54;;;;;;;22.43;9.43;;;;;0.00;94736.00;;;;7405819;19;20599;-75
2023/01/31 04:28:28;;;;;;;19.13;9.63;;;;;0.10;94733.00;;;;7406624;19;20136;-76
2023/01/31 04:30:56;;;;;;;21.70;10.43;;;;;0.10;94733.00;;;;7402537;19;20622;-75
2023/01/31 04:33:24;;;;;;;19.87;8.83;;;;;0.10;94735.00;;;;7405666;19;20132;-76
2023/01/31 04:35:58;;;;;;;25.17;10.53;;;;;0.00;94724.00;;;;7405418;19;20140;-76
2023/01/31 04:38:26;;;;;;;25.60;10.67;;;;;0.00;94718.00;;;;7404634;19;20147;-75
2023/01/31 04:41:00;;;;;;;25.20;9.77;;;;;0.00;94718.00;;;;7404511;19;20609;-76
2023/01/31 04:43:27;;;;;;;21.53;9.00;;;;;-0.20;94715.00;;;;7405909;19;20470;-75
2023/01/31 04:46:01;;;;;;;19.73;8.27;;;;;0.00;94708.00;;;;7406262;19;20125;-76
2023/01/31 04:48:29;;;;;;;19.87;9.10;;;;;-0.20;94725.00;;;;7407606;19;20125;-75
2023/01/31 04:51:04;;;;;;;18.60;9.03;;;;;0.10;94737.00;;;;7404975;19;20136;-75
2023/01/31 04:53:32;;;;;;;26.57;8.70;;;;;-0.20;94732.00;;;;7405616;19;20478;-75
2023/01/31 04:56:06;;;;;;;29.13;9.27;;;;;-0.30;94729.00;;;;7407075;19;20636;-76
2023/01/31 04:58:34;;;;;;;25.37;9.20;;;;;-0.30;94714.00;;;;7404683;19;20145;-74
2023/01/31 05:01:08;;;;;;;23.27;8.67;;;;;-0.20;94729.00;;;;7401166;19;20204;-76
2023/01/31 05:03:36;;;;;;;20.90;8.00;;;;;-0.40;94711.00;;;;7403042;19;20164;-75
2023/01/31 05:06:24;;;;;;;19.43;9.20;;;;;-0.30;94720.00;;;;7402580;19;20147;-76
2023/01/31 05:09:00;;;;;;;24.93;9.00;;;;;-0.40;94713.00;;;;7405192;19;20117;-77
2023/01/31 05:11:34;;;;;;;21.27;8.40;;;;;-0.50;94714.00;;;;7404166;19;20128;-75
2023/01/31 05:14:02;;;;;;;21.87;9.97;;;;;-0.60;94718.00;;;;7404047;19;20134;-76
2023/01/31 05:16:36;;;;;;;16.73;8.60;;;;;-0.60;94723.00;;;;7405392;19;20587;-75
2023/01/31 05:19:03;;;;;;;24.10;9.07;;;;;-0.60;94719.00;;;;7404738;19;20607;-76
2023/01/31 05:21:53;;;;;;;23.67;8.73;;;;;-0.50;94724.00;;;;7404785;19;20466;-75
2023/01/31 05:24:22;;;;;;;28.60;9.27;;;;;-0.60;94718.00;;;;7404957;19;20459;-76
2023/01/31 05:26:58;;;;;;;23.63;8.87;;;;;-0.70;94711.00;;;;7404274;19;20512;-76
2023/01/31 05:29:27;;;;;;;19.00;8.40;;;;;-0.80;94723.00;;;;7402579;19;20157;-75
2023/01/31 05:32:02;;;;;;;17.93;7.87;;;;;-0.80;94717.00;;;;7404358;19;20144;-75
2023/01/31 05:34:36;;;;;;;22.47;8.10;;;;;-0.90;94714.00;;;;7404276;19;20473;-76
2023/01/31 05:37:04;;;;;;;21.30;8.73;;;;;-0.90;94718.00;;;;7404418;19;20599;-76
2023/01/31 05:39:38;;;;;;;15.47;8.77;;;;;-0.90;94722.00;;;;7403380;19;20145;-76
2023/01/31 05:42:12;;;;;;;20.50;8.80;;;;;-0.80;94717.00;;;;7398594;19;20534;-76
2023/01/31 05:44:46;;;;;;;17.93;7.63;;;;;-0.90;94732.00;;;;7404172;19;20129;-77
2023/01/31 05:47:13;;;;;;;21.83;9.03;;;;;-1.00;94727.00;;;;7402990;19;20125;-78
2023/01/31 05:49:47;;;;;;;26.17;8.00;;;;;-1.00;94720.00;;;;7402589;19;20157;-76
2023/01/31 05:52:21;;;;;;;22.07;9.90;;;;;-0.90;94728.00;;;;7402282;19;20221;-77
2023/01/31 05:54:55;;;;;;;23.33;8.57;;;;;-1.00;94740.00;;;;7401498;19;20605;-78
2023/01/31 05:57:23;;;;;;;21.93;8.23;;;;;-1.10;94748.00;;;;7402341;19;20140;-76
2023/01/31 05:59:57;;;;;;;21.57;9.37;;;;;-1.10;94746.00;;;;7403826;19;20127;-78
2023/01/31 06:02:24;;;;;;;22.07;8.33;;;;;-1.10;94736.00;;;;7401185;19;20171;-76
2023/01/31 06:04:52;;;;;;;22.17;8.80;;;;;-1.10;94736.00;;;;7402006;19;20511;-77
2023/01/31 06:07:33;;;;;;;21.03;8.57;;;;;-1.20;94731.00;;;;7400505;19;20136;-76
2023/01/31 06:10:09;;;;;;;28.23;8.57;;;;;-1.20;94737.00;;;;7403116;19;20128;-76
2023/01/31 06:12:37;;;;;;;20.17;9.13;;;;;-1.30;94735.00;;;;7403649;19;20129;-76
2023/01/31 06:15:10;;;;;;;17.93;7.50;;;;;-1.30;94726.00;;;;7402771;19;20642;-76
2023/01/31 06:17:45;;;;;;;23.47;9.33;;;;;-1.40;94726.00;;;;7401199;19;20137;-75
2023/01/31 06:20:16;;;;;;;20.57;8.33;;;;;-1.30;94726.00;;;;7400558;19;20135;-75
2023/01/31 06:22:50;;;;;;;26.27;8.27;;;;;-1.30;94724.00;;;;7402325;19;20598;-75
2023/01/31 06:25:18;;;;;;;24.20;9.00;;;;;-1.30;94736.00;;;;7398942;19;20611;-75
2023/01/31 06:27:51;;;;;;;17.47;7.83;;;;;-1.30;94746.00;;;;7402605;19;20133;-76
2023/01/31 06:30:18;;;;;;;20.93;9.33;;;;;-1.30;94740.00;;;;7401038;19;20136;-76
2023/01/31 06:32:52;;;;;;;27.43;8.83;;;;;-1.30;94745.00;;;;7397053;19;20177;-76
2023/01/31 06:35:26;;;;;;;19.13;8.70;;;;;-1.30;94752.00;;;;7401759;19;20188;-77
2023/01/31 06:38:01;;;;;;;19.33;8.23;;;;;-1.50;94752.00;;;;7400319;19;20463;-76
2023/01/31 06:40:29;;;;;;;17.53;8.03;;;;;-1.40;94755.00;;;;7401539;19;20607;-76
2023/01/31 06:43:03;;;;;;;26.33;8.53;;;;;-1.40;94773.00;;;;7398438;19;20200;-76
2023/01/31 06:45:37;;;;;;;19.40;8.53;;;;;-1.50;94766.00;;;;7399007;19;20730;-77
2023/01/31 06:48:04;;;;;;;21.57;7.63;;;;;-1.60;94758.00;;;;7402385;19;20125;-80
2023/01/31 06:50:38;;;;;;;18.37;7.47;;;;;-1.60;94755.00;;;;7398782;19;20480;-77
2023/01/31 06:53:12;;;;;;;13.67;7.23;;;;;-1.60;94765.00;;;;7400401;19;20196;-80
2023/01/31 06:55:39;;;;;;;15.17;6.90;;;;;-1.80;94757.00;;;;7399036;19;20524;-77
2023/01/31 06:58:15;;;;;;;17.37;6.70;;;;;-1.90;94756.00;;;;7401175;19;20490;-77
2023/01/31 07:00:46;;;;;;;14.17;6.20;;;;;-2.00;94759.00;;;;7398372;19;20173;-76
2023/01/31 07:03:21;;;;;;;22.20;7.57;;;;;-2.00;94767.00;;;;7400961;19;20129;-76
2023/01/31 07:05:55;;;;;;;20.00;7.17;;;;;-2.00;94766.00;;;;7397766;19;20578;-77
2023/01/31 07:08:37;;;;;;;24.13;6.87;;;;;-2.00;94759.00;;;;7400530;19;20124;-76
2023/01/31 07:11:05;;;;;;;17.67;6.20;;;;;-1.90;94761.00;;;;7400245;19;20149;-76
2023/01/31 07:13:38;;;;;;;20.80;7.73;;;;;-1.80;94764.00;;;;7400433;19;20129;-76
2023/01/31 07:16:13;;;;;;;19.23;6.50;;;;;-1.60;94761.00;;;;7398395;19;20151;-75
2023/01/31 07:18:40;;;;;;;16.43;6.27;;;;;-1.40;94759.00;;;;7400490;19;20623;-77
2023/01/31 07:21:14;;;;;;;15.23;6.90;;;;;-1.20;94756.00;;;;7399372;19;20120;-75
2023/01/31 07:23:41;;;;;;;16.73;6.10;;;;;-1.10;94758.00;;;;7398321;19;20121;-76
2023/01/31 07:26:15;;;;;;;20.07;6.47;;;;;-0.90;94763.00;;;;7392867;19;20622;-75
2023/01/31 07:28:50;;;;;;;18.10;7.07;;;;;-0.90;94757.00;;;;7398083;19;20472;-75
2023/01/31 07:31:18;;;;;;;16.60;6.67;;;;;-0.90;94757.00;;;;7395672;19;20139;-75
2023/01/31 07:33:52;;;;;;;21.10;6.30;;;;;-0.80;94766.00;;;;7397448;19;20136;-75
2023/01/31 07:36:25;;;;;;;23.23;6.93;;;;;-0.70;94758.00;;;;7397420;19;20132;-76
2023/01/31 07:39:00;;;;;;;13.80;6.20;;;;;-0.60;94766.00;;;;7397727;19;20133;-78
2023/01/31 07:41:28;;;;;;;21.07;6.87;;;;;-0.70;94750.00;;;;7395955;19;20148;-75
2023/01/31 07:44:02;;;;;;;15.90;6.17;;;;;-0.70;94758.00;;;;7396304;19;20650;-75
2023/01/31 07:46:36;;;;;;;28.27;6.60;;;;;-0.60;94756.00;;;;7397008;19;20158;-76
2023/01/31 07:49:11;;;;;;;23.03;5.67;;;;;-0.40;94753.00;;;;7397096;19;20129;-77
2023/01/31 07:51:39;;;;;;;20.43;6.20;;;;;-0.30;94751.00;;;;7398390;19;20145;-75
2023/01/31 07:54:13;;;;;;;28.67;5.27;;;;;-0.20;94758.00;;;;7403938;19;20203;-74
2023/01/31 07:56:41;;;;;;;20.03;5.63;;;;;-0.20;94753.00;;;;7406642;19;20713;-75
2023/01/31 07:59:16;;;;;;;21.77;6.07;;;;;-0.20;94759.00;;;;7405261;19;20127;-75
2023/01/31 08:04:37;;;;;;;28.33;7.07;;;;;-0.10;94767.00;;;;7404857;19;20149;-76
2023/01/31 08:07:18;;;;;;;20.63;6.67;;;;;0.10;94765.00;;;;7404010;19;20612;-75
2023/01/31 08:09:48;;;;;;;16.87;6.07;;;;;0.20;94772.00;;;;7404185;19;20158;-76
2023/01/31 08:12:22;;;;;;;21.30;6.40;;;;;0.20;94765.00;;;;7406500;19;20467;-75
2023/01/31 08:14:57;;;;;;;14.10;6.57;;;;;0.30;94768.00;;;;7404662;19;20136;-75
2023/01/31 08:17:24;;;;;;;17.73;6.87;;;;;0.20;94775.00;;;;7404300;19;20494;-77
2023/01/31 08:19:59;;;;;;;16.33;5.80;;;;;0.30;94765.00;;;;7403140;19;20228;-76
2023/01/31 08:22:26;;;;;;;18.33;6.27;;;;;0.10;94764.00;;;;7404189;19;20623;-77
2023/01/31 08:25:00;;;;;;;22.17;6.30;;;;;0.00;94772.00;;;;7405099;19;20618;-76
2023/01/31 08:27:27;;;;;;;16.37;6.27;;;;;-0.10;94767.00;;;;7406990;19;20120;-75
2023/01/31 08:30:01;;;;;;;21.63;6.60;;;;;0.10;94764.00;;;;7402085;19;20459;-75
2023/01/31 08:32:28;;;;;;;14.30;5.40;;;;;0.20;94751.00;;;;7404936;19;20135;-76
2023/01/31 08:34:56;;;;;;;17.47;6.13;;;;;0.40;94755.00;;;;7403562;19;20151;-75
2023/01/31 08:37:31;;;;;;;18.30;5.63;;;;;0.40;94758.00;;;;7402932;19;20143;-76
2023/01/31 08:39:59;;;;;;;15.07;4.97;;;;;0.60;94756.00;;;;7402968;19;20499;-75
2023/01/31 08:42:33;;;;;;;13.37;4.83;;;;;0.70;94748.00;;;;7406652;19;20468;-77
2023/01/31 08:45:07;;;;;;;13.90;4.67;;;;;0.90;94755.00;;;;7404066;19;20162;-78
2023/01/31 08:47:36;;;;;;;17.03;5.13;;;;;1.10;94746.00;;;;7403694;19;20158;-77
2023/01/31 08:50:11;;;;;;;12.23;4.17;;;;;1.30;94750.00;;;;7406151;19;20198;-79
2023/01/31 08:53:22;;;;;;;11.23;4.43;;;;;1.30;94754.00;;;;7407070;19;20113;-79
2023/01/31 08:56:04;;;;;;;14.60;4.80;;;;;1.30;94746.00;;;;7405307;19;20587;-77
2023/01/31 08:58:40;;;;;;;11.47;4.20;;;;;1.30;94743.00;;;;7406711;19;20145;-75
2023/01/31 09:01:17;;;;;;;11.23;3.70;;;;;1.50;94740.00;;;;7401636;19;20168;-76
2023/01/31 09:03:45;;;;;;;15.93;3.90;;;;;1.60;94744.00;;;;7402200;19;20167;-76
2023/01/31 09:06:27;;;;;;;15.77;4.13;;;;;1.70;94741.00;;;;7400469;19;20168;-76
2023/01/31 09:09:02;;;;;;;13.47;4.30;;;;;1.70;94741.00;;;;7404850;19;20604;-76
2023/01/31 09:11:36;;;;;;;14.37;3.80;;;;;1.60;94746.00;;;;7405394;19;20200;-76
2023/01/31 09:14:03;;;;;;;9.83;3.57;;;;;1.30;94744.00;;;;7406623;19;20572;-75
2023/01/31 09:16:37;;;;;;;12.23;3.63;;;;;1.30;94745.00;;;;7406613;19;20456;-76
2023/01/31 09:19:11;;;;;;;10.87;3.90;;;;;1.20;94747.00;;;;7401844;19;20741;-76
2023/01/31 09:21:39;;;;;;;9.07;3.37;;;;;1.10;94743.00;;;;7407141;19;20145;-77
2023/01/31 09:24:08;;;;;;;10.03;3.17;;;;;1.30;94735.00;;;;7406054;19;20153;-75
2023/01/31 09:26:42;;;;;;;10.30;3.37;;;;;1.90;94734.00;;;;7408472;19;20134;-76
2023/01/31 09:29:16;;;;;;;10.23;3.50;;;;;2.30;94723.00;;;;7405440;19;20165;-76
2023/01/31 09:31:44;;;;;;;11.93;3.87;;;;;2.00;94726.00;;;;7403187;19;20140;-78
2023/01/31 09:34:12;;;;;;;9.90;3.40;;;;;2.20;94721.00;;;;7405907;19;20148;-79
2023/01/31 09:36:46;;;;;;;9.30;3.47;;;;;2.40;94711.00;;;;7405356;19;20223;-76
2023/01/31 09:39:14;;;;;;;8.27;2.90;;;;;2.40;94708.00;;;;7405544;19;20125;-79
2023/01/31 09:42:24;;;;;;;8.47;2.93;;;;;2.40;94714.00;;;;7403131;19;20120;-75
2023/01/31 09:45:06;;;;;;;7.93;2.67;;;;;2.20;94703.00;;;;7402300;19;20200;-76
2023/01/31 09:47:47;;;;;;;6.77;2.40;;;;;2.00;94700.00;;;;7405652;19;20140;-76
2023/01/31 09:50:23;;;;;;;12.13;2.93;;;;;2.30;94701.00;;;;7403736;19;20143;-77
2023/01/31 09:52:58;;;;;;;9.87;3.17;;;;;2.20;94707.00;;;;7403054;19;20149;-75
2023/01/31 09:55:47;;;;;;;10.10;3.27;;;;;2.50;94717.00;;;;7402195;19;20129;-75
2023/01/31 09:58:34;;;;;;;7.47;2.97;;;;;2.20;94716.00;;;;7402281;19;20524;-77
2023/01/31 10:01:30;;;;;;;11.63;3.30;;;;;2.40;94716.00;;;;7400722;19;20125;-75
2023/01/31 10:04:37;;;;;;;10.13;2.67;;;;;1.80;94721.00;;;;7399683;19;20148;-75
2023/01/31 10:07:25;;;;;;;9.83;3.37;;;;;2.00;94728.00;;;;7400054;19;20152;-74
2023/01/31 10:10:37;;;;;;;8.60;2.90;;;;;1.90;94729.00;;;;7404580;19;20223;-75
2023/01/31 10:13:22;;;;;;;5.63;3.30;;;;;2.10;94729.00;;;;7400366;19;20121;-75
2023/01/31 10:16:02;;;;;;;8.67;3.30;;;;;3.80;94718.00;;;;7398728;19;20225;-74
2023/01/31 10:18:41;;;;;;;4.70;3.07;;;;;4.30;94740.00;;;;7400571;19;20132;-74
2023/01/31 10:21:13;;;;;;;6.83;3.37;;;;;3.90;94697.00;;;;7398379;19;20132;-74
2023/01/31 10:23:57;;;;;;;9.50;2.87;;;;;4.70;94691.00;;;;7401137;19;20184;-74
2023/01/31 10:26:37;;;;;;;6.73;3.13;;;;;4.00;94726.00;;;;7399846;19;20136;-73
2023/01/31 10:29:33;;;;;;;7.30;3.00;;;;;4.10;94736.00;;;;7399619;19;20125;-73
2023/01/31 10:32:07;;;;;;;11.97;2.73;;;;;3.30;94732.00;;;;7398387;19;20172;-72
2023/01/31 10:34:51;;;;;;;10.70;3.10;;;;;3.40;94719.00;;;;7400518;19;20133;-72
2023/01/31 10:37:34;;;;;;;10.03;2.97;;;;;3.00;94706.00;;;;7402062;19;20180;-72
2023/01/31 10:40:23;;;;;;;5.97;2.73;;;;;4.50;94688.00;;;;7401238;19;20121;-74
2023/01/31 10:43:01;;;;;;;8.60;2.60;;;;;4.70;94688.00;;;;7399474;19;20124;-71
2023/01/31 10:45:37;;;;;;;8.33;3.33;;;;;4.30;94703.00;;;;7397356;19;20180;-72
2023/01/31 10:48:18;;;;;;;10.43;2.90;;;;;4.50;94705.00;;;;7398167;19;20208;-73
2023/01/31 10:51:17;;;;;;;10.50;3.07;;;;;4.50;94719.00;;;;7398828;19;20487;-71
2023/01/31 10:54:30;;;;;;;10.97;4.83;;;;;4.10;94723.00;;;;7400119;19;20121;-72
2023/01/31 10:56:58;;;;;;;13.60;3.23;;;;;2.90;94725.00;;;;7397990;19;20132;-71
2023/01/31 10:59:42;;;;;;;11.33;3.17;;;;;2.30;94717.00;;;;7399685;19;20135;-71
2023/01/31 11:02:20;;;;;;;7.73;2.70;;;;;3.00;94713.00;;;;7386889;19;20248;-72
2023/01/31 11:04:57;;;;;;;5.70;2.83;;;;;3.20;94721.00;;;;7399276;19;20157;-71
2023/01/31 11:07:36;;;;;;;9.57;3.87;;;;;3.90;94667.00;;;;7399355;19;20204;-72
2023/01/31 11:10:29;;;;;;;11.47;2.93;;;;;5.70;94693.00;;;;7400118;19;20163;-69
2023/01/31 11:13:08;;;;;;;9.57;2.70;;;;;5.40;94695.00;;;;7402329;19;20133;-71
2023/01/31 11:15:43;;;;;;;8.77;2.93;;;;;3.80;94705.00;;;;7400631;19;20132;-72
2023/01/31 11:18:23;;;;;;;5.20;2.80;;;;;3.20;94696.00;;;;7395731;19;20212;-74
2023/01/31 11:20:59;;;;;;;7.53;2.47;;;;;2.80;94675.00;;;;7398322;19;20133;-71
2023/01/31 11:23:32;;;;;;;6.57;2.60;;;;;2.10;94652.00;;;;7396843;19;20156;-69
2023/01/31 11:26:07;;;;;;;7.40;2.73;;;;;2.50;94669.00;;;;7399814;19;20135;-70
2023/01/31 11:28:40;;;;;;;10.13;3.27;;;;;2.80;94646.00;;;;7400153;19;20145;-71
2023/01/31 11:31:24;;;;;;;9.13;2.70;;;;;3.10;94630.00;;;;7398163;19;20136;-71
2023/01/31 11:34:01;;;;;;;8.93;3.60;;;;;2.80;94645.00;;;;7394443;19;20148;-70
2023/01/31 11:36:40;;;;;;;9.13;3.10;;;;;3.00;94641.00;;;;7399931;19;20141;-71
2023/01/31 11:39:30;;;;;;;17.23;2.50;;;;;1.90;94639.00;;;;7400538;19;20141;-72
2023/01/31 11:42:12;;;;;;;8.10;2.53;;;;;2.00;94645.00;;;;7398824;19;20138;-71
2023/01/31 11:45:03;;;;;;;8.77;2.50;;;;;1.80;94648.00;;;;7398712;19;20591;-71
2023/01/31 11:47:48;;;;;;;12.77;2.80;;;;;1.90;94656.00;;;;7401292;19;20156;-71
2023/01/31 11:50:23;;;;;;;5.37;2.40;;;;;1.90;94663.00;;;;7399600;19;20599;-74
2023/01/31 11:53:01;;;;;;;6.10;3.10;;;;;1.70;94684.00;;;;7399024;19;20124;-70
2023/01/31 11:55:37;;;;;;;8.40;3.20;;;;;1.70;94689.00;;;;7399107;19;20139;-71
2023/01/31 11:58:35;;;;;;;8.33;3.10;;;;;1.60;94699.00;;;;7401858;19;20135;-74
2023/01/31 12:01:10;;;;;;;7.17;2.67;;;;;1.40;94688.00;;;;7399504;19;20143;-72
2023/01/31 12:04:00;;;;;;;9.63;3.07;;;;;1.50;94682.00;;;;7394493;19;20177;-73
2023/01/31 12:06:36;;;;;;;9.80;2.70;;;;;1.60;94667.00;;;;7401421;19;20153;-72
2023/01/31 12:09:23;;;;;;;13.13;2.67;;;;;1.80;94667.00;;;;7401495;19;20129;-71
2023/01/31 12:12:05;;;;;;;10.37;2.90;;;;;1.50;94654.00;;;;7399725;19;20163;-71
2023/01/31 12:14:46;;;;;;;7.43;2.90;;;;;1.70;94635.00;;;;7398151;19;20603;-72
2023/01/31 12:17:20;;;;;;;12.67;3.00;;;;;1.50;94629.00;;;;7398406;19;20133;-71
2023/01/31 12:20:27;;;;;;;10.33;3.07;;;;;1.50;94627.00;;;;7399915;19;20132;-71
2023/01/31 12:23:21;;;;;;;11.00;2.97;;;;;1.20;94626.00;;;;7396201;19;20161;-72
2023/01/31 12:26:08;;;;;;;8.83;3.07;;;;;1.40;94621.00;;;;7399774;19;20133;-73
2023/01/31 12:29:08;;;;;;;9.73;2.80;;;;;1.40;94613.00;;;;7398284;19;20141;-74
2023/01/31 12:32:06;;;;;;;8.37;2.87;;;;;1.40;94622.00;;;;7398764;19;20498;-72
2023/01/31 12:34:56;;;;;;;10.33;2.77;;;;;1.20;94603.00;;;;7397558;19;20200;-72
2023/01/31 12:37:56;;;;;;;9.43;2.90;;;;;1.30;94597.00;;;;7398927;19;20116;-71
2023/01/31 12:40:55;;;;;;;11.17;3.50;;;;;1.40;94608.00;;;;7402666;19;20145;-71
2023/01/31 12:44:01;;;;;;;7.33;2.63;;;;;1.50;94610.00;;;;7407227;19;20129;-72
2023/01/31 12:46:54;;;;;;;11.57;2.57;;;;;1.70;94610.00;;;;7405777;19;20125;-74
2023/01/31 12:49:50;;;;;;;7.73;2.40;;;;;1.70;94614.00;;;;7405843;19;20129;-72
2023/01/31 12:52:36;;;;;;;4.73;2.20;;;;;1.50;94606.00;;;;7405715;19;20141;-74
2023/01/31 12:55:24;;;;;;;6.87;3.07;;;;;1.90;94599.00;;;;7404775;19;20137;-72
2023/01/31 12:58:10;;;;;;;4.93;2.17;;;;;1.40;94586.00;;;;7405621;19;20137;-73
2023/01/31 13:00:59;;;;;;;5.17;2.23;;;;;1.30;94581.00;;;;7404591;19;20146;-71
2023/01/31 13:04:11;;;;;;;6.40;2.33;;;;;1.10;94567.00;;;;7401972;19;20171;-71
2023/01/31 13:06:46;;;;;;;6.57;2.67;;;;;1.30;94560.00;;;;7405250;19;20149;-71
2023/01/31 13:09:35;;;;;;;6.07;2.50;;;;;1.40;94555.00;;;;7407163;19;20129;-71
2023/01/31 13:12:20;;;;;;;8.30;2.77;;;;;1.50;94541.00;;;;7404728;19;20136;-71
2023/01/31 13:15:05;;;;;;;3.47;2.23;;;;;1.40;94543.00;;;;7404563;19;20149;-72
2023/01/31 13:17:42;;;;;;;6.53;2.30;;;;;1.50;94543.00;;;;7403803;19;20124;-71